Ana Sayfa
METAR-TAF:

METAR-TAF

Havaalanları :

Chamberlain Municipal Airport

Chamberlain, Güney Dakota, Amerika Birleşik Devletleri

Enlem: 43-46-00N, Boylam: 099-19-06W, yükseklik: 516 m

Güncel hava durumu gözlemi

Rapor saat 12:35 UTC de 31 dakika önce yapıldı.
Rüzgar batı/kuzeybatıdan 15 kt ve 25 kt'a kadar ani rüzgarlar
Sıcaklık 18°C
Nem 83%
Basınç 1003 hPa
Görüş mesafesi: 16.1 km
1800 ft yükseklikte çok bulutlu

METAR: K9V9 161235Z AUTO 30015G25KT 10SM OVC018 18/15 A2963 RMK AO2 T01830145

Saat: 08:06 (13:06 UTC)


TAF: eksik

4.000'den fazla havaalanı için hava durumu gözlemleri ve tahminleri (METAR ve TAF raporları).

Kullanılabilir istasyonlar harita üzerinde sarı ve kırmızı noktalarla gösterilir.

İstasyonun adını görmek için fareyi noktanın üzerinde gezdirin.

Sonrasında hava gözlem ve tahminlerini görmek için tıklayın.

Haritayı değiştirmek için: yaklaştırmak için siyah artı işaretli yeşil düğmeye ve uzaklaştırmak için de eksi işaretli düğmeye hızla tıklayın; bitişik haritalar için yeşil okları kullanın.


METAR-TAF: